Time;durP1;ratioP1;P1;durP2;ratioP2;P2;SDS_P1;SDS_P2;PMS_P1;PMS_P2;Temp;Humidity;BMP_temperature;BMP_pressure;BME280_temperature;BME280_humidity;BME280_pressure;Samples;Min_cycle;Max_cycle;Signal;HPM_P1;HPM_P2
2023/12/18 00:01:37;;;;;;;11.50;6.67;;;6.90;1.00;;;;;;5074668;28;20868;-79
2023/12/18 00:04:06;;;;;;;9.93;6.00;;;6.80;1.00;;;;;;5078207;28;20272;-79
2023/12/18 00:06:33;;;;;;;8.07;6.13;;;6.70;99.90;;;;;;5077065;28;20202;-80
2023/12/18 00:09:00;;;;;;;11.57;6.97;;;6.70;99.90;;;;;;5075265;28;20206;-78
2023/12/18 00:11:28;;;;;;;11.07;6.53;;;6.70;1.00;;;;;;5078485;28;20605;-82
2023/12/18 00:13:55;;;;;;;8.63;6.10;;;6.80;99.90;;;;;;5076448;28;20194;-77
2023/12/18 00:16:22;;;;;;;11.43;6.70;;;6.50;1.00;;;;;;5081090;28;20202;-79
2023/12/18 00:18:49;;;;;;;9.17;5.90;;;6.60;1.00;;;;;;5081722;28;20202;-78
2023/12/18 00:21:16;;;;;;;9.57;6.03;;;6.50;1.00;;;;;;5079415;28;20226;-78
2023/12/18 00:23:43;;;;;;;10.47;5.77;;;6.60;1.00;;;;;;5079310;28;20198;-78
2023/12/18 00:26:10;;;;;;;10.57;6.20;;;6.60;1.00;;;;;;5075621;28;20226;-79
2023/12/18 00:28:38;;;;;;;9.77;6.10;;;6.70;1.00;;;;;;5079826;28;20202;-80
2023/12/18 00:31:05;;;;;;;10.10;6.37;;;6.70;1.00;;;;;;5076635;28;20276;-78
2023/12/18 00:33:32;;;;;;;8.70;5.83;;;6.80;99.90;;;;;;5075525;28;20231;-79
2023/12/18 00:35:59;;;;;;;9.07;5.87;;;6.70;1.00;;;;;;5076760;28;20653;-79
2023/12/18 00:38:26;;;;;;;9.10;5.57;;;6.80;1.00;;;;;;5077804;28;20252;-80
2023/12/18 00:40:53;;;;;;;10.40;5.93;;;6.70;99.90;;;;;;5079165;28;20218;-79
2023/12/18 00:43:20;;;;;;;10.23;6.53;;;6.80;99.90;;;;;;5074861;28;20647;-79
2023/12/18 00:45:48;;;;;;;11.23;7.00;;;6.80;99.90;;;;;;5068734;28;20207;-79
2023/12/18 00:48:16;;;;;;;11.10;6.23;;;6.80;99.90;;;;;;5076320;28;20203;-80
2023/12/18 00:50:43;;;;;;;10.97;7.00;;;7.00;99.90;;;;;;5077490;28;20284;-80
2023/12/18 00:53:10;;;;;;;13.03;7.17;;;7.00;89.80;;;;;;5078651;28;20208;-78
2023/12/18 00:55:37;;;;;;;10.13;6.53;;;7.00;1.00;;;;;;5074214;28;20657;-80
2023/12/18 00:58:04;;;;;;;11.30;6.13;;;6.90;1.00;;;;;;5076295;28;20195;-81
2023/12/18 01:00:31;;;;;;;10.33;6.27;;;6.80;14.60;;;;;;5078740;28;20410;-80
2023/12/18 01:02:59;;;;;;;12.30;7.03;;;6.90;99.90;;;;;;5076714;28;20214;-79
2023/12/18 01:05:26;;;;;;;11.80;7.17;;;6.80;99.90;;;;;;5080422;28;20289;-81
2023/12/18 01:07:53;;;;;;;13.33;7.97;;;6.70;99.90;;;;;;5074816;28;20203;-78
2023/12/18 01:10:20;;;;;;;11.23;8.50;;;6.70;1.00;;;;;;5074340;28;20257;-80
2023/12/18 01:12:47;;;;;;;15.17;9.37;;;6.90;1.00;;;;;;5074776;28;20194;-78
2023/12/18 01:15:14;;;;;;;17.70;9.33;;;6.60;1.00;;;;;;5077238;28;20230;-80
2023/12/18 01:17:41;;;;;;;12.80;7.83;;;6.60;1.00;;;;;;5079088;28;20224;-80
2023/12/18 01:20:10;;;;;;;14.63;8.20;;;6.50;1.00;;;;;;5075874;28;20198;-79
2023/12/18 01:22:37;;;;;;;15.20;8.33;;;6.50;1.00;;;;;;5079077;28;20240;-79
2023/12/18 01:25:05;;;;;;;13.67;7.97;;;6.40;1.00;;;;;;5076984;28;20232;-79
2023/12/18 01:27:32;;;;;;;10.63;7.47;;;6.40;1.00;;;;;;5080335;28;20680;-80
2023/12/18 01:29:59;;;;;;;14.43;8.30;;;6.50;1.00;;;;;;5078237;28;20202;-80
2023/12/18 01:32:26;;;;;;;11.77;7.00;;;6.50;1.00;;;;;;5079288;28;21930;-80
2023/12/18 01:34:52;;;;;;;11.23;7.37;;;6.40;1.00;;;;;;5077119;28;20198;-79
2023/12/18 01:37:21;;;;;;;11.97;7.00;;;6.50;1.00;;;;;;5079865;28;20313;-80
2023/12/18 01:39:48;;;;;;;11.40;7.17;;;6.40;1.00;;;;;;5076341;28;20194;-79
2023/12/18 01:42:15;;;;;;;11.57;7.10;;;6.40;1.00;;;;;;5077439;28;20589;-79
2023/12/18 01:44:42;;;;;;;10.63;6.63;;;6.30;1.00;;;;;;5076187;28;20210;-79
2023/12/18 01:47:09;;;;;;;9.93;6.27;;;6.20;1.00;;;;;;5073702;28;20206;-79
2023/12/18 01:49:36;;;;;;;11.07;6.80;;;6.20;1.00;;;;;;5074942;28;20210;-79
2023/12/18 01:52:05;;;;;;;10.40;6.40;;;6.10;1.00;;;;;;5076618;28;20215;-78
2023/12/18 01:54:33;;;;;;;12.97;7.33;;;6.10;75.70;;;;;;5082884;28;20345;-79
2023/12/18 01:57:01;;;;;;;13.27;7.37;;;6.20;83.70;;;;;;5078560;28;20230;-80
2023/12/18 01:59:31;;;;;;;13.17;7.73;;;6.10;1.00;;;;;;5078451;28;20229;-78
2023/12/18 02:01:58;;;;;;;12.67;7.27;;;6.10;1.40;;;;;;5077044;28;20244;-79
2023/12/18 02:04:26;;;;;;;12.30;7.37;;;6.00;1.00;;;;;;5076898;28;20198;-80
2023/12/18 02:06:53;;;;;;;12.57;7.53;;;5.90;81.30;;;;;;5078578;28;20328;-80
2023/12/18 02:09:20;;;;;;;12.33;7.53;;;6.00;99.90;;;;;;5073946;28;20210;-80
2023/12/18 02:11:48;;;;;;;12.43;7.40;;;5.90;93.80;;;;;;5077001;28;20233;-79
2023/12/18 02:14:15;;;;;;;14.87;7.63;;;5.90;98.30;;;;;;5072061;28;20199;-80
2023/12/18 02:16:42;;;;;;;11.83;7.27;;;5.90;99.90;;;;;;5079573;28;20206;-79
2023/12/18 02:19:23;;;;;;;12.80;7.33;;;5.90;99.90;;;;;;5078871;28;20202;-80
2023/12/18 02:21:50;;;;;;;11.50;6.17;;;5.80;99.90;;;;;;5075475;28;20240;-80
2023/12/18 02:24:18;;;;;;;10.53;6.30;;;5.90;99.90;;;;;;5078985;28;20251;-79
2023/12/18 02:26:46;;;;;;;11.27;5.93;;;5.80;99.90;;;;;;5082338;28;20562;-79
2023/12/18 02:29:13;;;;;;;12.60;6.53;;;5.90;42.40;;;;;;5075500;28;20198;-79
2023/12/18 02:31:41;;;;;;;12.60;6.30;;;6.10;1.00;;;;;;5080699;28;20226;-79
2023/12/18 02:34:08;;;;;;;11.70;6.57;;;6.30;99.90;;;;;;5078965;28;20624;-79
2023/12/18 02:36:35;;;;;;;16.87;7.63;;;6.40;1.00;;;;;;5080605;28;20203;-79
2023/12/18 02:39:02;;;;;;;14.17;7.87;;;6.50;33.50;;;;;;5079908;28;20203;-81
2023/12/18 02:41:30;;;;;;;16.13;8.17;;;6.60;1.00;;;;;;5079549;28;20724;-79
2023/12/18 02:43:57;;;;;;;14.40;8.30;;;6.80;99.90;;;;;;5074426;28;20227;-80
2023/12/18 02:46:24;;;;;;;20.67;10.97;;;6.80;1.00;;;;;;5073767;28;20203;-79
2023/12/18 02:48:51;;;;;;;16.53;9.23;;;6.90;1.00;;;;;;5077639;28;20211;-81
2023/12/18 02:51:18;;;;;;;15.77;8.77;;;7.00;1.00;;;;;;5081235;28;20230;-79
2023/12/18 02:53:45;;;;;;;18.47;9.17;;;7.00;1.00;;;;;;5077969;28;20225;-80
2023/12/18 02:56:14;;;;;;;16.53;9.17;;;6.90;1.00;;;;;;5080764;28;20294;-80
2023/12/18 02:58:42;;;;;;;17.87;9.10;;;6.90;99.90;;;;;;5077195;28;20238;-80
2023/12/18 03:01:09;;;;;;;20.73;9.67;;;7.00;99.90;;;;;;5081527;28;20222;-81
2023/12/18 03:03:36;;;;;;;18.40;8.67;;;6.90;99.90;;;;;;5078634;28;20222;-79
2023/12/18 03:06:03;;;;;;;16.30;8.80;;;6.80;99.90;;;;;;5069166;28;20207;-81
2023/12/18 03:08:30;;;;;;;15.33;8.80;;;6.80;23.20;;;;;;5076999;28;20271;-81
2023/12/18 03:10:57;;;;;;;18.60;9.37;;;6.80;1.00;;;;;;5075716;28;20234;-81
2023/12/18 03:13:24;;;;;;;18.10;9.47;;;6.80;1.00;;;;;;5077019;28;20216;-79
2023/12/18 03:15:52;;;;;;;20.60;10.10;;;6.80;1.00;;;;;;5077101;28;20210;-79
2023/12/18 03:18:19;;;;;;;16.83;9.43;;;6.70;1.00;;;;;;5075803;28;20283;-79
2023/12/18 03:20:47;;;;;;;17.83;8.93;;;6.70;1.00;;;;;;5082814;28;20198;-80
2023/12/18 03:23:14;;;;;;;16.63;9.57;;;6.60;1.00;;;;;;5082563;28;20219;-79
2023/12/18 03:25:41;;;;;;;15.57;9.30;;;6.60;1.00;;;;;;5079177;28;20228;-77
2023/12/18 03:28:08;;;;;;;16.63;9.07;;;6.50;1.00;;;;;;5081304;28;20205;-81
2023/12/18 03:30:35;;;;;;;21.63;10.47;;;6.50;1.00;;;;;;5078317;28;20222;-79
2023/12/18 03:33:04;;;;;;;16.40;9.87;;;6.50;1.00;;;;;;5080160;28;20625;-81
2023/12/18 03:35:30;;;;;;;20.03;10.90;;;6.50;1.00;;;;;;5082288;28;20230;-81
2023/12/18 03:37:57;;;;;;;17.53;9.50;;;6.70;1.00;;;;;;5080690;28;20203;-80
2023/12/18 03:40:25;;;;;;;19.33;10.60;;;6.50;1.00;;;;;;5081094;28;20226;-81
2023/12/18 03:42:52;;;;;;;19.20;10.67;;;6.50;1.00;;;;;;5074321;28;20222;-79
2023/12/18 03:45:19;;;;;;;22.37;11.67;;;6.40;1.00;;;;;;5076016;28;20202;-82
2023/12/18 03:47:46;;;;;;;20.93;11.27;;;6.40;1.00;;;;;;5072035;28;20233;-79
2023/12/18 03:50:14;;;;;;;19.63;10.30;;;6.40;1.00;;;;;;5075586;28;20551;-80
2023/12/18 03:52:41;;;;;;;21.77;10.60;;;6.30;1.00;;;;;;5076832;28;20868;-80
2023/12/18 03:55:09;;;;;;;21.83;11.53;;;6.40;1.00;;;;;;5077751;28;20293;-80
2023/12/18 03:57:36;;;;;;;18.37;11.10;;;6.50;1.00;;;;;;5072868;28;20199;-81
2023/12/18 04:00:03;;;;;;;23.53;12.07;;;6.50;1.00;;;;;;5073268;28;20254;-80
2023/12/18 04:02:30;;;;;;;19.37;10.73;;;6.50;1.00;;;;;;5081558;28;20777;-80
2023/12/18 04:04:57;;;;;;;21.27;11.27;;;6.40;1.00;;;;;;5077412;28;20229;-80
2023/12/18 04:07:25;;;;;;;20.47;11.87;;;6.40;1.00;;;;;;5078208;28;20229;-79
2023/12/18 04:09:52;;;;;;;18.70;11.40;;;6.50;99.90;;;;;;5077550;28;20221;-79
2023/12/18 04:12:19;;;;;;;19.60;11.43;;;6.50;99.90;;;;;;5073154;28;20250;-79
2023/12/18 04:14:46;;;;;;;20.37;11.40;;;6.50;99.90;;;;;;5080357;28;20296;-80
2023/12/18 04:17:13;;;;;;;21.50;11.37;;;6.60;99.90;;;;;;5067849;28;20202;-79
2023/12/18 04:19:39;;;;;;;22.57;11.60;;;6.50;99.90;;;;;;5073706;28;20212;-80
2023/12/18 04:22:06;;;;;;;21.73;14.13;;;6.50;99.90;;;;;;5074389;28;20248;-80
2023/12/18 04:24:35;;;;;;;19.37;11.90;;;6.50;99.90;;;;;;5077297;28;20233;-81
2023/12/18 04:27:01;;;;;;;22.73;12.03;;;6.40;99.90;;;;;;5072211;28;20664;-79
2023/12/18 04:29:28;;;;;;;24.93;12.73;;;6.40;99.90;;;;;;5075635;28;20578;-81
2023/12/18 04:31:55;;;;;;;24.13;13.00;;;6.30;99.90;;;;;;5075815;28;20217;-79
2023/12/18 04:34:22;;;;;;;22.87;13.27;;;6.40;99.90;;;;;;5075462;28;20260;-79
2023/12/18 04:36:49;;;;;;;23.00;13.53;;;6.40;99.90;;;;;;5079066;28;20732;-79
2023/12/18 04:39:16;;;;;;;22.50;12.63;;;6.40;26.00;;;;;;5074797;28;20267;-80
2023/12/18 04:41:45;;;;;;;25.20;14.17;;;6.40;1.00;;;;;;5073082;28;20274;-80
2023/12/18 04:44:12;;;;;;;23.97;12.77;;;6.30;1.00;;;;;;5075287;28;20222;-78
2023/12/18 04:46:40;;;;;;;25.47;14.00;;;6.20;1.00;;;;;;5077808;28;20225;-82
2023/12/18 04:49:09;;;;;;;23.47;12.97;;;6.20;1.00;;;;;;5078800;28;20281;-80
2023/12/18 04:51:35;;;;;;;24.20;13.57;;;6.30;1.00;;;;;;5064809;28;20322;-80
2023/12/18 04:54:02;;;;;;;25.37;13.73;;;6.30;1.00;;;;;;5069326;28;20210;-77
2023/12/18 04:56:29;;;;;;;27.07;14.13;;;6.20;1.00;;;;;;5073142;28;20224;-80
2023/12/18 04:58:58;;;;;;;21.70;13.20;;;6.20;1.00;;;;;;5070892;28;20313;-79
2023/12/18 05:01:24;;;;;;;23.07;13.73;;;6.20;1.00;;;;;;5076795;28;20222;-80
2023/12/18 05:03:51;;;;;;;22.90;13.63;;;6.20;1.00;;;;;;5072005;28;20638;-80
2023/12/18 05:06:20;;;;;;;22.07;12.50;;;6.20;1.00;;;;;;5070183;28;20225;-79
2023/12/18 05:08:47;;;;;;;24.93;13.70;;;6.20;1.00;;;;;;5070459;28;20204;-79
2023/12/18 05:11:14;;;;;;;24.50;13.00;;;6.10;1.00;;;;;;5070006;28;20285;-81
2023/12/18 05:13:41;;;;;;;26.90;14.27;;;6.20;1.30;;;;;;5071642;28;20226;-78
2023/12/18 05:16:09;;;;;;;21.87;14.00;;;6.20;1.00;;;;;;5074690;28;20707;-80
2023/12/18 05:18:36;;;;;;;27.60;14.73;;;6.20;1.00;;;;;;5074722;28;20207;-80
2023/12/18 05:21:05;;;;;;;24.10;14.00;;;6.20;1.00;;;;;;5071365;28;20230;-78
2023/12/18 05:23:31;;;;;;;25.73;14.60;;;6.20;1.00;;;;;;5074688;28;20291;-79
2023/12/18 05:25:58;;;;;;;21.80;13.33;;;6.20;1.00;;;;;;5071575;28;20662;-80
2023/12/18 05:28:26;;;;;;;24.53;14.10;;;6.20;1.00;;;;;;5070429;28;20202;-80
2023/12/18 05:30:53;;;;;;;25.20;15.53;;;6.10;24.70;;;;;;5076623;28;20218;-80
2023/12/18 05:33:21;;;;;;;25.87;14.60;;;6.10;99.90;;;;;;5072130;28;20641;-80
2023/12/18 05:35:48;;;;;;;24.33;15.17;;;6.20;99.90;;;;;;5074126;28;20203;-79
2023/12/18 05:38:15;;;;;;;27.07;14.83;;;6.20;92.10;;;;;;5076499;28;20718;-79
2023/12/18 05:40:43;;;;;;;22.37;14.00;;;6.20;45.90;;;;;;5076917;28;20577;-80
2023/12/18 05:43:09;;;;;;;25.53;14.20;;;6.20;30.50;;;;;;5073267;28;20309;-79
2023/12/18 05:45:36;;;;;;;23.80;13.20;;;6.20;1.00;;;;;;5074932;28;20202;-79
2023/12/18 05:48:04;;;;;;;22.57;13.57;;;6.20;1.00;;;;;;5078436;28;20198;-80
2023/12/18 05:50:33;;;;;;;21.67;12.80;;;6.30;1.00;;;;;;5073598;28;20248;-80
2023/12/18 05:53:00;;;;;;;21.80;12.53;;;6.30;1.00;;;;;;5067563;28;20199;-78
2023/12/18 05:55:27;;;;;;;20.53;11.50;;;6.30;1.00;;;;;;5071341;28;20209;-81
2023/12/18 05:57:54;;;;;;;19.27;11.83;;;6.30;1.00;;;;;;5069928;28;20210;-80
2023/12/18 06:00:21;;;;;;;20.23;11.77;;;6.30;1.00;;;;;;5071478;28;20223;-80
2023/12/18 06:02:48;;;;;;;23.43;12.10;;;6.30;1.00;;;;;;5076994;28;20198;-79
2023/12/18 06:05:15;;;;;;;23.43;12.53;;;6.30;1.00;;;;;;5065776;28;20222;-79
2023/12/18 06:07:43;;;;;;;19.47;12.37;;;6.30;1.00;;;;;;5077034;28;20213;-77
2023/12/18 06:10:10;;;;;;;23.83;12.90;;;6.20;1.00;;;;;;5075148;28;20252;-80
2023/12/18 06:12:38;;;;;;;19.87;11.13;;;6.20;1.00;;;;;;5072531;28;20645;-79
2023/12/18 06:15:06;;;;;;;24.17;11.63;;;6.30;1.00;;;;;;5068866;28;20198;-80
2023/12/18 06:17:33;;;;;;;21.90;12.87;;;6.30;1.00;;;;;;5076145;28;20202;-80
2023/12/18 06:19:59;;;;;;;24.10;13.33;;;6.30;1.00;;;;;;5078556;28;20225;-78
2023/12/18 06:22:26;;;;;;;23.80;12.90;;;6.30;1.00;;;;;;5072933;28;20722;-77
2023/12/18 06:24:55;;;;;;;21.07;12.53;;;6.30;1.00;;;;;;5071769;28;20666;-78
2023/12/18 06:27:22;;;;;;;24.23;13.00;;;6.20;1.00;;;;;;5070459;28;20298;-78
2023/12/18 06:29:48;;;;;;;22.63;12.93;;;6.30;1.00;;;;;;5071221;28;20210;-78
2023/12/18 06:32:15;;;;;;;24.13;13.37;;;6.30;1.00;;;;;;5069024;28;20226;-78
2023/12/18 06:34:43;;;;;;;22.87;12.83;;;6.30;1.00;;;;;;5071468;28;20249;-77
2023/12/18 06:37:10;;;;;;;26.77;13.03;;;6.40;1.00;;;;;;5071229;28;20199;-76
2023/12/18 06:39:37;;;;;;;24.43;12.90;;;6.30;1.00;;;;;;5071477;28;20202;-77
2023/12/18 06:42:06;;;;;;;24.43;13.07;;;6.30;1.00;;;;;;5067877;28;20274;-78
2023/12/18 06:44:33;;;;;;;21.27;12.03;;;6.30;1.00;;;;;;5070181;28;20222;-78
2023/12/18 06:47:00;;;;;;;22.07;12.83;;;6.30;1.00;;;;;;5071470;28;20210;-76
2023/12/18 06:49:27;;;;;;;26.70;13.70;;;6.30;1.00;;;;;;5064762;28;20339;-77
2023/12/18 06:51:54;;;;;;;21.57;13.50;;;6.30;1.00;;;;;;5063895;28;20223;-78
2023/12/18 06:54:21;;;;;;;24.77;14.13;;;6.30;1.00;;;;;;5064845;28;20203;-78
2023/12/18 06:56:47;;;;;;;27.73;15.77;;;6.30;1.00;;;;;;5067885;28;20252;-78
2023/12/18 06:59:16;;;;;;;24.77;14.53;;;6.30;1.00;;;;;;5069564;28;20198;-76
2023/12/18 07:01:44;;;;;;;26.13;14.47;;;6.30;7.40;;;;;;5066048;28;20268;-78
2023/12/18 07:04:11;;;;;;;24.57;15.17;;;6.30;1.00;;;;;;5068022;28;20214;-78
2023/12/18 07:06:38;;;;;;;29.33;16.57;;;6.30;1.00;;;;;;5065601;28;20252;-77
2023/12/18 07:09:05;;;;;;;26.97;14.90;;;6.30;1.00;;;;;;5068401;28;20207;-79
2023/12/18 07:11:32;;;;;;;27.07;14.43;;;6.30;54.30;;;;;;5063347;28;20265;-78
2023/12/18 07:13:59;;;;;;;27.23;16.13;;;6.30;92.70;;;;;;5059660;28;20225;-78
2023/12/18 07:16:27;;;;;;;26.30;15.53;;;6.30;97.60;;;;;;5065177;28;20570;-77
2023/12/18 07:18:56;;;;;;;29.93;16.83;;;6.30;99.90;;;;;;5066014;28;20202;-77
2023/12/18 07:21:23;;;;;;;31.47;15.27;;;6.30;99.90;;;;;;5068086;28;20284;-77
2023/12/18 07:23:50;;;;;;;28.47;15.50;;;6.30;99.90;;;;;;5069555;28;20218;-78
2023/12/18 07:26:17;;;;;;;27.20;15.87;;;6.30;99.90;;;;;;5062890;28;20287;-77
2023/12/18 07:28:45;;;;;;;27.30;15.20;;;6.30;99.90;;;;;;5064611;28;20594;-77
2023/12/18 07:31:12;;;;;;;23.90;14.10;;;6.30;99.90;;;;;;5069062;28;20296;-78
2023/12/18 07:33:40;;;;;;;24.30;14.87;;;6.40;99.90;;;;;;5067270;28;20194;-78
2023/12/18 07:36:08;;;;;;;25.53;15.77;;;6.40;99.90;;;;;;5064986;28;20656;-77
2023/12/18 07:38:34;;;;;;;27.83;15.47;;;6.40;99.90;;;;;;5067498;28;20207;-78
2023/12/18 07:41:03;;;;;;;26.27;15.47;;;6.40;99.90;;;;;;5072406;28;20288;-77
2023/12/18 07:43:30;;;;;;;26.03;14.53;;;6.40;99.90;;;;;;5070260;28;20222;-80
2023/12/18 07:45:57;;;;;;;26.37;16.13;;;6.50;99.90;;;;;;5068087;28;20231;-77
2023/12/18 07:48:25;;;;;;;26.70;15.47;;;6.40;99.90;;;;;;5072341;28;20202;-78
2023/12/18 07:50:55;;;;;;;27.57;14.93;;;6.50;99.90;;;;;;5067479;28;20231;-79
2023/12/18 07:53:22;;;;;;;27.77;16.13;;;6.40;99.90;;;;;;5068473;28;20202;-80
2023/12/18 07:55:49;;;;;;;27.70;15.20;;;6.40;1.00;;;;;;5069057;28;20287;-78
2023/12/18 07:58:16;;;;;;;29.60;15.63;;;6.40;1.00;;;;;;5070971;28;20198;-77
2023/12/18 08:00:43;;;;;;;24.37;13.50;;;6.50;1.00;;;;;;5069554;28;20313;-78
2023/12/18 08:03:10;;;;;;;30.30;17.00;;;6.40;1.00;;;;;;5064852;28;20229;-77
2023/12/18 08:05:37;;;;;;;29.23;16.07;;;6.40;1.00;;;;;;5070464;28;20261;-79
2023/12/18 08:08:06;;;;;;;27.67;16.23;;;6.40;1.00;;;;;;5071706;28;20230;-77
2023/12/18 08:10:33;;;;;;;29.17;15.37;;;6.40;1.00;;;;;;5066369;28;20254;-79
2023/12/18 08:12:59;;;;;;;29.13;15.77;;;6.40;1.00;;;;;;5070528;28;20232;-77
2023/12/18 08:15:26;;;;;;;27.07;15.27;;;6.40;1.00;;;;;;5068757;28;20198;-77
2023/12/18 08:17:53;;;;;;;28.70;16.00;;;6.50;1.00;;;;;;5070003;28;20206;-79
2023/12/18 08:20:20;;;;;;;27.97;15.47;;;6.40;1.00;;;;;;5064972;28;20227;-79
2023/12/18 08:22:47;;;;;;;23.90;14.33;;;6.40;1.00;;;;;;5065700;28;20234;-80
2023/12/18 08:25:15;;;;;;;28.47;16.97;;;6.40;1.00;;;;;;5064628;28;20254;-80
2023/12/18 08:27:42;;;;;;;27.10;14.80;;;6.40;1.00;;;;;;5068495;28;20203;-79
2023/12/18 08:30:10;;;;;;;25.27;14.17;;;6.40;1.00;;;;;;5067243;28;20583;-78
2023/12/18 08:32:38;;;;;;;25.13;13.03;;;6.40;1.00;;;;;;5067774;28;20204;-78
2023/12/18 08:35:06;;;;;;;22.10;13.07;;;6.80;1.00;;;;;;5069525;28;20190;-77
2023/12/18 08:37:33;;;;;;;22.80;13.07;;;6.40;1.00;;;;;;5068556;28;20276;-78
2023/12/18 08:40:00;;;;;;;20.73;12.43;;;6.40;1.00;;;;;;5070837;28;20198;-78
2023/12/18 08:42:28;;;;;;;24.17;12.33;;;6.50;1.00;;;;;;5071333;28;20289;-78
2023/12/18 08:44:55;;;;;;;20.47;11.67;;;6.50;1.00;;;;;;5070584;28;20221;-77
2023/12/18 08:47:22;;;;;;;24.87;12.37;;;6.50;1.00;;;;;;5069007;28;20206;-79
2023/12/18 08:49:49;;;;;;;22.27;12.17;;;6.50;1.00;;;;;;5069093;28;20207;-78
2023/12/18 08:52:16;;;;;;;24.03;12.43;;;6.50;1.00;;;;;;5067343;28;20297;-78
2023/12/18 08:54:43;;;;;;;21.77;11.97;;;6.50;1.00;;;;;;5067004;28;20639;-79
2023/12/18 08:57:10;;;;;;;25.83;12.40;;;6.50;1.00;;;;;;5066792;28;20210;-78
2023/12/18 08:59:38;;;;;;;21.57;10.90;;;6.50;1.00;;;;;;5068981;28;20283;-82
2023/12/18 09:02:05;;;;;;;22.30;11.50;;;6.50;1.00;;;;;;5070372;28;20319;-79
2023/12/18 09:04:32;;;;;;;21.20;10.80;;;6.50;1.00;;;;;;5069865;28;20590;-78
2023/12/18 09:06:59;;;;;;;20.73;11.03;;;6.50;1.00;;;;;;5067479;28;20742;-79
2023/12/18 09:09:26;;;;;;;20.50;11.57;;;6.60;1.00;;;;;;5071151;28;20635;-77
2023/12/18 09:11:53;;;;;;;19.73;10.13;;;6.60;1.00;;;;;;5067806;28;20257;-77
2023/12/18 09:14:19;;;;;;;17.50;9.80;;;6.50;1.00;;;;;;5065694;28;20290;-77
2023/12/18 09:16:49;;;;;;;19.53;9.80;;;6.60;1.00;;;;;;5062657;28;20285;-78
2023/12/18 09:19:16;;;;;;;21.53;11.07;;;6.60;1.00;;;;;;5061930;28;20863;-79
2023/12/18 09:21:43;;;;;;;18.63;10.13;;;6.70;1.00;;;;;;5065061;28;20233;-78
2023/12/18 09:24:10;;;;;;;17.60;10.23;;;6.60;1.00;;;;;;5065777;28;20230;-78
2023/12/18 09:26:37;;;;;;;20.30;10.00;;;6.70;1.00;;;;;;5062901;28;20256;-78
2023/12/18 09:29:04;;;;;;;20.87;10.87;;;6.80;1.00;;;;;;5064696;28;20206;-78
2023/12/18 09:31:31;;;;;;;21.07;11.07;;;6.70;1.00;;;;;;5061191;28;20229;-78
2023/12/18 09:33:59;;;;;;;19.50;10.83;;;6.80;1.00;;;;;;5066212;28;20206;-78
2023/12/18 09:36:26;;;;;;;20.03;10.80;;;6.80;37.40;;;;;;5065560;28;20279;-78
2023/12/18 09:38:53;;;;;;;18.03;10.87;;;6.80;1.00;;;;;;5064482;28;20202;-78
2023/12/18 09:41:24;;;;;;;17.57;9.97;;;6.70;1.00;;;;;;5060517;28;20307;-78
2023/12/18 09:43:52;;;;;;;19.20;10.83;;;6.80;1.00;;;;;;5063807;28;20256;-77
2023/12/18 09:46:22;;;;;;;18.27;10.20;;;6.80;1.00;;;;;;5059595;28;20296;-76
2023/12/18 09:48:49;;;;;;;20.87;10.40;;;6.80;1.00;;;;;;5058575;28;20286;-77
2023/12/18 09:51:22;;;;;;;19.47;11.27;;;6.80;1.00;;;;;;5063525;28;20236;-77
2023/12/18 09:53:49;;;;;;;19.87;11.63;;;6.80;1.00;;;;;;5062260;28;20231;-77
2023/12/18 09:56:18;;;;;;;22.13;10.80;;;6.80;1.00;;;;;;5066456;28;20738;-77
2023/12/18 09:58:47;;;;;;;20.27;10.70;;;6.80;1.00;;;;;;5062103;28;20289;-78
2023/12/18 10:01:14;;;;;;;19.97;9.97;;;6.80;1.00;;;;;;5064812;28;20228;-78
2023/12/18 10:03:41;;;;;;;20.37;11.37;;;6.80;1.00;;;;;;5065220;28;20247;-77
2023/12/18 10:06:08;;;;;;;19.30;9.97;;;6.70;1.00;;;;;;5063536;28;20288;-77
2023/12/18 10:08:37;;;;;;;17.13;9.67;;;6.80;1.00;;;;;;5064641;28;20206;-77
2023/12/18 10:11:04;;;;;;;22.37;11.37;;;6.80;1.00;;;;;;5064971;28;20267;-79
2023/12/18 10:13:31;;;;;;;17.00;9.33;;;6.90;1.00;;;;;;5069192;28;20206;-78
2023/12/18 10:15:58;;;;;;;18.27;10.67;;;6.90;1.00;;;;;;5067710;28;20190;-79
2023/12/18 10:18:26;;;;;;;18.60;10.30;;;6.90;1.00;;;;;;5069669;28;20285;-78
2023/12/18 10:20:52;;;;;;;18.67;9.83;;;6.90;1.00;;;;;;5068754;28;20266;-80
2023/12/18 10:23:19;;;;;;;16.53;9.37;;;7.00;1.00;;;;;;5069481;28;20306;-78
2023/12/18 10:25:48;;;;;;;18.63;10.03;;;7.00;1.00;;;;;;5067821;28;20279;-78
2023/12/18 10:28:16;;;;;;;17.17;9.87;;;7.00;1.00;;;;;;5064248;28;20206;-77
2023/12/18 10:30:43;;;;;;;16.90;9.30;;;7.00;1.00;;;;;;5062330;28;20230;-79
2023/12/18 10:33:10;;;;;;;18.77;9.73;;;7.00;1.00;;;;;;5065730;28;20205;-79
2023/12/18 10:35:37;;;;;;;17.70;9.80;;;7.00;1.00;;;;;;5067281;28;20631;-79
2023/12/18 10:38:06;;;;;;;19.40;9.60;;;7.00;1.00;;;;;;5062198;28;20679;-77
2023/12/18 10:40:33;;;;;;;15.57;8.80;;;7.00;1.00;;;;;;5061880;28;20279;-79
2023/12/18 10:43:11;;;;;;;18.27;9.83;;;7.00;1.00;;;;;;5056533;28;20226;-80
2023/12/18 10:45:39;;;;;;;17.53;9.97;;;7.10;1.00;;;;;;5061724;28;20355;-79
2023/12/18 10:48:08;;;;;;;15.90;9.20;;;7.10;1.00;;;;;;5060926;28;20657;-79
2023/12/18 10:50:36;;;;;;;15.40;8.40;;;7.10;1.00;;;;;;5063919;28;20254;-79
2023/12/18 10:53:05;;;;;;;16.17;8.63;;;7.10;1.00;;;;;;5058120;28;20683;-78
2023/12/18 10:55:32;;;;;;;17.80;8.73;;;7.10;1.00;;;;;;5061451;28;20194;-78
2023/12/18 10:58:00;;;;;;;16.83;9.50;;;7.10;1.00;;;;;;5065588;28;20209;-78
2023/12/18 11:00:29;;;;;;;16.13;8.90;;;7.10;1.00;;;;;;5058857;28;20222;-79
2023/12/18 11:02:57;;;;;;;18.97;8.93;;;7.20;1.00;;;;;;5058883;28;20221;-80
2023/12/18 11:05:25;;;;;;;17.50;9.93;;;7.10;1.00;;;;;;5068407;28;20278;-79
2023/12/18 11:07:52;;;;;;;15.77;8.90;;;7.10;1.00;;;;;;5065454;28;20577;-79
2023/12/18 11:10:19;;;;;;;15.87;8.27;;;7.20;1.00;;;;;;5067321;28;20227;-78
2023/12/18 11:12:50;;;;;;;16.53;7.97;;;7.20;1.00;;;;;;5069160;28;20204;-80
2023/12/18 11:15:26;;;;;;;16.73;8.47;;;7.20;1.00;;;;;;5071317;28;20218;-80
2023/12/18 11:18:05;;;;;;;13.10;7.70;;;7.20;1.00;;;;;;5067819;28;20700;-80
2023/12/18 11:20:36;;;;;;;14.40;8.00;;;7.30;1.00;;;;;;5069846;28;20657;-79
2023/12/18 11:23:03;;;;;;;11.07;6.50;;;7.20;1.00;;;;;;5069457;28;20290;-79
2023/12/18 11:25:33;;;;;;;10.47;7.03;;;7.40;1.00;;;;;;5069949;28;20291;-80
2023/12/18 11:28:02;;;;;;;10.03;6.40;;;7.30;1.00;;;;;;5074223;28;20737;-77
2023/12/18 11:30:30;;;;;;;11.93;6.63;;;7.30;1.00;;;;;;5068102;28;20219;-77
2023/12/18 11:33:05;;;;;;;13.03;7.23;;;7.30;1.00;;;;;;5071034;28;20214;-78
2023/12/18 11:35:34;;;;;;;16.00;9.57;;;7.30;1.00;;;;;;5070246;28;20205;-78
2023/12/18 11:38:06;;;;;;;14.00;8.70;;;7.30;1.00;;;;;;5070209;28;20237;-79
2023/12/18 11:40:43;;;;;;;14.83;7.73;;;7.30;1.00;;;;;;5069313;28;20222;-79
2023/12/18 11:43:11;;;;;;;14.37;8.10;;;7.30;1.00;;;;;;5067318;28;20602;-78
2023/12/18 11:45:43;;;;;;;15.03;8.37;;;7.30;1.00;;;;;;5071567;28;20306;-77
2023/12/18 11:48:18;;;;;;;14.13;8.00;;;7.40;1.00;;;;;;5061954;28;20205;-77
2023/12/18 11:50:49;;;;;;;11.77;7.50;;;7.40;1.00;;;;;;5066045;28;20302;-78
2023/12/18 11:53:35;;;;;;;16.30;7.37;;;7.40;1.00;;;;;;5071076;28;20576;-78
2023/12/18 11:56:09;;;;;;;13.77;7.40;;;7.50;1.00;;;;;;5062638;28;20191;-78
2023/12/18 11:58:37;;;;;;;9.97;7.20;;;7.50;1.00;;;;;;5066302;28;20206;-79
2023/12/18 12:01:05;;;;;;;13.47;7.97;;;7.50;1.00;;;;;;5069229;28;20218;-79
2023/12/18 12:03:34;;;;;;;10.93;6.93;;;7.50;1.00;;;;;;5068795;28;20195;-79
2023/12/18 12:06:03;;;;;;;11.40;7.60;;;7.50;1.00;;;;;;5064750;28;20222;-78
2023/12/18 12:08:29;;;;;;;13.97;7.97;;;7.50;1.00;;;;;;5071017;28;20532;-78
2023/12/18 12:10:57;;;;;;;15.27;8.37;;;7.50;1.00;;;;;;5064174;28;20301;-79
2023/12/18 12:13:26;;;;;;;15.07;9.10;;;7.50;1.00;;;;;;5069226;28;20206;-79
2023/12/18 12:15:57;;;;;;;17.70;9.27;;;7.50;1.00;;;;;;5067634;28;20217;-80
2023/12/18 12:18:26;;;;;;;14.47;9.27;;;7.60;1.00;;;;;;5068448;28;20265;-80
2023/12/18 12:20:54;;;;;;;15.27;8.23;;;7.50;1.00;;;;;;5068630;28;20229;-78
2023/12/18 12:23:21;;;;;;;13.50;8.20;;;7.50;1.00;;;;;;5064299;28;20214;-78
2023/12/18 12:25:50;;;;;;;14.27;7.80;;;7.50;1.00;;;;;;5066578;28;20286;-78
2023/12/18 12:28:18;;;;;;;14.10;8.13;;;7.50;1.00;;;;;;5068652;28;20263;-80
2023/12/18 12:30:45;;;;;;;14.33;7.97;;;7.50;1.00;;;;;;5068108;28;20218;-82
2023/12/18 12:33:13;;;;;;;15.23;8.63;;;7.50;1.00;;;;;;5071696;28;20617;-79
2023/12/18 12:35:42;;;;;;;15.10;9.20;;;7.60;1.00;;;;;;5058034;28;20202;-79
2023/12/18 12:38:10;;;;;;;13.43;7.53;;;7.90;1.00;;;;;;5069759;28;20567;-80
2023/12/18 12:40:42;;;;;;;18.23;9.40;;;7.60;1.00;;;;;;5062174;28;20717;-80
2023/12/18 12:43:10;;;;;;;15.77;9.27;;;7.70;1.00;;;;;;5071050;28;20209;-78
2023/12/18 12:45:38;;;;;;;16.57;9.43;;;7.70;1.00;;;;;;5063088;28;20228;-80
2023/12/18 12:48:09;;;;;;;17.23;10.53;;;7.70;1.00;;;;;;5068742;28;20202;-78
2023/12/18 12:50:37;;;;;;;15.83;9.13;;;7.70;1.00;;;;;;5064275;28;20696;-77
2023/12/18 12:53:04;;;;;;;17.77;9.00;;;7.70;1.00;;;;;;5060014;28;20235;-78